KMEM

Memphis International Airport

Memphis, Tennessee, USA
METAR KMEM 240154Z 29005KT 10SM FEW150 BKN200 OVC250 25/22 A3008 RMK AO2 SLP180 T02500222 $
Observed Flight Rules
May-24 @ 01:54 UTC (17 minutes ago) Visual Flight Rules
Wind Visibility Clouds
290° at 5 knots 10 miles
  • Few at 15,000' AGL
  • Broken at 20,000' AGL
  • Overcast at 25,000' AGL
Temperatures Readings
Current 25°C / 77°F
Dewpoint 22°C / 72°F
Humidity 83%
Altimeter 30.08" Hg
Pressure 1018 hPa
Elevation 86
METAR KMEM 240154Z 29005KT 10SM FEW150 BKN200 OVC250 25/22 A3008 RMK AO2 SLP180 T02500222 $
Observed Flight Rules
May-24 @ 01:54 UTC
(17 minutes ago)
VFR
Wind Visibility
290° at 5 knots 10 miles
Clouds
  • Few at 15,000' AGL
  • Broken at 20,000' AGL
  • Overcast at 25,000' AGL
Temperature Dewpoint
25°C / 77°F 22°C / 72°F
Humidity Altimeter Pressure
83% 30.08" Hg 1018 hPa